sensor_id;sensor_type;location;lat;lon;timestamp;P1;durP1;ratioP1;P2;durP2;ratioP2
56130;SDS011;42000;44.774;20.506;2023-01-26T06:34:05;16.08;;;7.38;;
56130;SDS011;42000;44.774;20.506;2023-01-26T06:36:31;17.23;;;8.15;;
56130;SDS011;42000;44.774;20.506;2023-01-26T06:38:57;15.27;;;7.55;;
56130;SDS011;42000;44.774;20.506;2023-01-26T06:41:23;15.98;;;8.38;;
56130;SDS011;42000;44.774;20.506;2023-01-26T06:43:49;21.90;;;9.60;;
56130;SDS011;42000;44.774;20.506;2023-01-26T06:46:16;20.95;;;10.45;;
56130;SDS011;42000;44.774;20.506;2023-01-26T06:48:42;17.50;;;8.82;;
56130;SDS011;42000;44.774;20.506;2023-01-26T06:56:19;19.88;;;9.05;;
56130;SDS011;42000;44.774;20.506;2023-01-26T06:58:45;22.73;;;9.32;;
56130;SDS011;42000;44.774;20.506;2023-01-26T07:03:44;22.75;;;8.93;;
56130;SDS011;42000;44.774;20.506;2023-01-26T07:06:10;20.80;;;9.48;;
56130;SDS011;42000;44.774;20.506;2023-01-26T07:08:36;22.20;;;9.10;;
56130;SDS011;42000;44.774;20.506;2023-01-26T07:11:02;23.15;;;9.77;;
56130;SDS011;42000;44.774;20.506;2023-01-26T07:13:28;23.00;;;10.30;;
56130;SDS011;42000;44.774;20.506;2023-01-26T07:16:27;21.42;;;10.40;;
56130;SDS011;42000;44.774;20.506;2023-01-26T07:18:46;20.90;;;9.82;;
56130;SDS011;42000;44.774;20.506;2023-01-26T07:21:13;22.05;;;10.48;;
56130;SDS011;42000;44.774;20.506;2023-01-26T07:23:40;23.67;;;10.55;;
56130;SDS011;42000;44.774;20.506;2023-01-26T07:26:06;21.60;;;10.05;;
56130;SDS011;42000;44.774;20.506;2023-01-26T07:28:32;20.17;;;9.57;;
56130;SDS011;42000;44.774;20.506;2023-01-26T07:30:59;18.65;;;9.98;;
56130;SDS011;42000;44.774;20.506;2023-01-26T07:33:29;20.65;;;9.55;;
56130;SDS011;42000;44.774;20.506;2023-01-26T07:35:55;22.08;;;9.73;;
56130;SDS011;42000;44.774;20.506;2023-01-26T07:38:21;19.95;;;9.60;;
56130;SDS011;42000;44.774;20.506;2023-01-26T07:40:48;23.90;;;10.13;;
56130;SDS011;42000;44.774;20.506;2023-01-26T07:43:14;19.63;;;10.48;;
56130;SDS011;42000;44.774;20.506;2023-01-26T07:45:44;21.35;;;10.05;;
56130;SDS011;42000;44.774;20.506;2023-01-26T07:48:10;20.38;;;10.18;;
56130;SDS011;42000;44.774;20.506;2023-01-26T07:50:36;23.77;;;10.52;;
56130;SDS011;42000;44.774;20.506;2023-01-26T07:53:02;20.42;;;9.90;;
56130;SDS011;42000;44.774;20.506;2023-01-26T07:55:29;20.30;;;10.43;;
56130;SDS011;42000;44.774;20.506;2023-01-26T07:57:55;22.23;;;11.20;;
56130;SDS011;42000;44.774;20.506;2023-01-26T08:00:21;20.27;;;9.63;;
56130;SDS011;42000;44.774;20.506;2023-01-26T08:02:51;23.25;;;10.60;;
56130;SDS011;42000;44.774;20.506;2023-01-26T08:05:17;22.63;;;10.40;;
56130;SDS011;42000;44.774;20.506;2023-01-26T08:07:43;21.75;;;10.75;;
56130;SDS011;42000;44.774;20.506;2023-01-26T08:10:09;20.70;;;10.38;;
56130;SDS011;42000;44.774;20.506;2023-01-26T08:12:36;20.90;;;10.18;;
56130;SDS011;42000;44.774;20.506;2023-01-26T08:15:02;24.13;;;10.65;;
56130;SDS011;42000;44.774;20.506;2023-01-26T08:17:29;20.35;;;10.23;;
56130;SDS011;42000;44.774;20.506;2023-01-26T08:19:57;22.35;;;11.05;;
56130;SDS011;42000;44.774;20.506;2023-01-26T08:22:23;20.35;;;9.93;;
56130;SDS011;42000;44.774;20.506;2023-01-26T08:24:49;19.45;;;10.75;;
56130;SDS011;42000;44.774;20.506;2023-01-26T08:27:15;28.25;;;11.38;;
56130;SDS011;42000;44.774;20.506;2023-01-26T08:29:42;58.30;;;16.92;;
56130;SDS011;42000;44.774;20.506;2023-01-26T08:32:08;49.10;;;15.85;;
56130;SDS011;42000;44.774;20.506;2023-01-26T08:34:34;26.60;;;11.40;;
56130;SDS011;42000;44.774;20.506;2023-01-26T08:37:00;37.05;;;13.82;;
56130;SDS011;42000;44.774;20.506;2023-01-26T08:39:26;37.15;;;14.52;;
56130;SDS011;42000;44.774;20.506;2023-01-26T08:41:53;52.83;;;20.33;;
56130;SDS011;42000;44.774;20.506;2023-01-26T08:44:19;51.80;;;18.73;;
56130;SDS011;42000;44.774;20.506;2023-01-26T08:46:45;35.65;;;14.82;;
56130;SDS011;42000;44.774;20.506;2023-01-26T08:49:11;33.58;;;14.13;;
56130;SDS011;42000;44.774;20.506;2023-01-26T08:51:38;29.90;;;13.05;;
56130;SDS011;42000;44.774;20.506;2023-01-26T08:54:04;22.02;;;10.30;;
56130;SDS011;42000;44.774;20.506;2023-01-26T08:56:32;27.38;;;12.32;;
56130;SDS011;42000;44.774;20.506;2023-01-26T08:58:58;30.45;;;13.02;;
56130;SDS011;42000;44.774;20.506;2023-01-26T09:01:24;24.63;;;11.32;;
56130;SDS011;42000;44.774;20.506;2023-01-26T09:03:50;23.80;;;12.02;;
56130;SDS011;42000;44.774;20.506;2023-01-26T09:06:17;27.15;;;12.48;;
56130;SDS011;42000;44.774;20.506;2023-01-26T09:08:43;24.85;;;11.60;;
56130;SDS011;42000;44.774;20.506;2023-01-26T09:11:10;24.60;;;11.63;;
56130;SDS011;42000;44.774;20.506;2023-01-26T09:13:36;25.05;;;12.07;;
56130;SDS011;42000;44.774;20.506;2023-01-26T09:16:05;25.15;;;12.30;;
56130;SDS011;42000;44.774;20.506;2023-01-26T09:18:32;23.73;;;12.00;;
56130;SDS011;42000;44.774;20.506;2023-01-26T09:21:05;21.38;;;10.52;;
56130;SDS011;42000;44.774;20.506;2023-01-26T09:23:32;21.73;;;10.35;;
56130;SDS011;42000;44.774;20.506;2023-01-26T09:25:58;24.38;;;10.63;;
56130;SDS011;42000;44.774;20.506;2023-01-26T09:28:24;26.23;;;9.98;;
56130;SDS011;42000;44.774;20.506;2023-01-26T09:30:50;18.60;;;10.20;;
56130;SDS011;42000;44.774;20.506;2023-01-26T09:33:16;16.25;;;9.05;;
56130;SDS011;42000;44.774;20.506;2023-01-26T09:35:42;22.92;;;10.93;;
56130;SDS011;42000;44.774;20.506;2023-01-26T09:38:08;16.45;;;8.90;;
56130;SDS011;42000;44.774;20.506;2023-01-26T09:40:36;22.85;;;9.48;;
56130;SDS011;42000;44.774;20.506;2023-01-26T09:43:15;23.95;;;10.52;;
56130;SDS011;42000;44.774;20.506;2023-01-26T09:45:47;23.13;;;10.82;;
56130;SDS011;42000;44.774;20.506;2023-01-26T09:48:19;22.02;;;9.25;;
56130;SDS011;42000;44.774;20.506;2023-01-26T09:53:18;19.52;;;9.65;;
56130;SDS011;42000;44.774;20.506;2023-01-26T09:55:45;22.17;;;9.38;;
56130;SDS011;42000;44.774;20.506;2023-01-26T09:58:14;19.88;;;9.25;;
56130;SDS011;42000;44.774;20.506;2023-01-26T10:00:46;20.25;;;10.32;;
56130;SDS011;42000;44.774;20.506;2023-01-26T10:05:40;14.93;;;8.05;;
56130;SDS011;42000;44.774;20.506;2023-01-26T10:08:11;18.23;;;8.35;;
56130;SDS011;42000;44.774;20.506;2023-01-26T10:10:40;16.95;;;8.82;;
56130;SDS011;42000;44.774;20.506;2023-01-26T10:13:08;19.20;;;8.70;;
56130;SDS011;42000;44.774;20.506;2023-01-26T10:15:37;19.75;;;9.82;;
56130;SDS011;42000;44.774;20.506;2023-01-26T10:18:08;22.38;;;10.35;;
56130;SDS011;42000;44.774;20.506;2023-01-26T10:20:41;19.35;;;9.30;;
56130;SDS011;42000;44.774;20.506;2023-01-26T10:23:11;16.48;;;8.52;;
56130;SDS011;42000;44.774;20.506;2023-01-26T10:25:40;19.27;;;9.02;;
56130;SDS011;42000;44.774;20.506;2023-01-26T10:30:38;14.90;;;8.07;;
56130;SDS011;42000;44.774;20.506;2023-01-26T10:33:04;25.50;;;10.60;;
56130;SDS011;42000;44.774;20.506;2023-01-26T10:35:34;20.48;;;9.63;;
56130;SDS011;42000;44.774;20.506;2023-01-26T10:38:00;18.55;;;9.57;;
56130;SDS011;42000;44.774;20.506;2023-01-26T10:40:26;15.95;;;7.97;;
56130;SDS011;42000;44.774;20.506;2023-01-26T10:42:54;20.70;;;8.93;;
56130;SDS011;42000;44.774;20.506;2023-01-26T10:45:25;17.67;;;9.63;;
56130;SDS011;42000;44.774;20.506;2023-01-26T10:50:51;13.63;;;6.78;;
56130;SDS011;42000;44.774;20.506;2023-01-26T10:55:43;13.30;;;7.70;;
56130;SDS011;42000;44.774;20.506;2023-01-26T10:58:39;16.15;;;7.90;;
56130;SDS011;42000;44.774;20.506;2023-01-26T11:01:07;14.05;;;7.15;;
56130;SDS011;42000;44.774;20.506;2023-01-26T11:03:38;11.68;;;6.28;;
56130;SDS011;42000;44.774;20.506;2023-01-26T11:08:37;16.67;;;8.77;;
56130;SDS011;42000;44.774;20.506;2023-01-26T11:11:04;19.67;;;9.15;;
56130;SDS011;42000;44.774;20.506;2023-01-26T11:13:34;15.85;;;8.45;;
56130;SDS011;42000;44.774;20.506;2023-01-26T11:16:16;14.55;;;7.53;;
56130;SDS011;42000;44.774;20.506;2023-01-26T11:21:34;14.90;;;7.38;;
56130;SDS011;42000;44.774;20.506;2023-01-26T11:26:46;15.23;;;8.18;;
56130;SDS011;42000;44.774;20.506;2023-01-26T11:50:12;16.33;;;7.43;;
56130;SDS011;42000;44.774;20.506;2023-01-26T12:01:06;16.60;;;7.28;;
56130;SDS011;42000;44.774;20.506;2023-01-26T12:03:48;14.25;;;7.32;;
56130;SDS011;42000;44.774;20.506;2023-01-26T12:09:06;16.77;;;8.88;;
56130;SDS011;42000;44.774;20.506;2023-01-26T12:12:16;16.13;;;8.05;;
56130;SDS011;42000;44.774;20.506;2023-01-26T12:15:09;16.13;;;7.55;;
56130;SDS011;42000;44.774;20.506;2023-01-26T12:17:32;13.00;;;6.70;;
56130;SDS011;42000;44.774;20.506;2023-01-26T12:22:48;18.23;;;8.63;;
56130;SDS011;42000;44.774;20.506;2023-01-26T12:25:36;12.63;;;6.60;;
56130;SDS011;42000;44.774;20.506;2023-01-26T12:33:12;19.90;;;9.82;;
56130;SDS011;42000;44.774;20.506;2023-01-26T12:35:43;16.85;;;7.68;;
56130;SDS011;42000;44.774;20.506;2023-01-26T12:38:13;12.57;;;6.40;;
56130;SDS011;42000;44.774;20.506;2023-01-26T12:40:42;12.27;;;6.80;;
56130;SDS011;42000;44.774;20.506;2023-01-26T12:45:42;15.10;;;8.10;;
56130;SDS011;42000;44.774;20.506;2023-01-26T12:48:15;15.02;;;8.05;;
56130;SDS011;42000;44.774;20.506;2023-01-26T12:50:44;18.02;;;8.77;;
56130;SDS011;42000;44.774;20.506;2023-01-26T12:53:24;20.75;;;11.13;;
56130;SDS011;42000;44.774;20.506;2023-01-26T12:58:50;20.38;;;10.32;;
56130;SDS011;42000;44.774;20.506;2023-01-26T13:01:18;26.73;;;12.23;;
56130;SDS011;42000;44.774;20.506;2023-01-26T13:06:18;28.80;;;12.90;;
56130;SDS011;42000;44.774;20.506;2023-01-26T13:08:49;24.35;;;11.60;;
56130;SDS011;42000;44.774;20.506;2023-01-26T13:14:18;19.63;;;9.50;;
56130;SDS011;42000;44.774;20.506;2023-01-26T13:16:47;22.80;;;11.40;;
56130;SDS011;42000;44.774;20.506;2023-01-26T13:22:00;20.77;;;10.25;;
56130;SDS011;42000;44.774;20.506;2023-01-26T13:26:52;25.38;;;11.27;;
56130;SDS011;42000;44.774;20.506;2023-01-26T13:31:52;30.33;;;14.52;;
56130;SDS011;42000;44.774;20.506;2023-01-26T13:34:20;24.88;;;11.82;;
56130;SDS011;42000;44.774;20.506;2023-01-26T13:36:46;26.67;;;12.85;;
56130;SDS011;42000;44.774;20.506;2023-01-26T13:39:30;24.25;;;12.13;;
56130;SDS011;42000;44.774;20.506;2023-01-26T13:41:56;30.15;;;13.43;;
56130;SDS011;42000;44.774;20.506;2023-01-26T13:44:24;25.98;;;13.23;;
56130;SDS011;42000;44.774;20.506;2023-01-26T13:46:53;25.55;;;12.38;;
56130;SDS011;42000;44.774;20.506;2023-01-26T13:49:21;29.60;;;14.65;;
56130;SDS011;42000;44.774;20.506;2023-01-26T13:51:48;26.98;;;13.65;;
56130;SDS011;42000;44.774;20.506;2023-01-26T13:54:14;28.27;;;12.43;;
56130;SDS011;42000;44.774;20.506;2023-01-26T13:56:42;22.83;;;12.20;;
56130;SDS011;42000;44.774;20.506;2023-01-26T14:01:41;28.55;;;14.75;;
56130;SDS011;42000;44.774;20.506;2023-01-26T14:04:11;28.27;;;14.63;;
56130;SDS011;42000;44.774;20.506;2023-01-26T14:06:38;25.10;;;13.25;;
56130;SDS011;42000;44.774;20.506;2023-01-26T14:09:06;27.23;;;13.52;;
56130;SDS011;42000;44.774;20.506;2023-01-26T14:11:36;27.48;;;12.73;;
56130;SDS011;42000;44.774;20.506;2023-01-26T14:14:03;29.48;;;15.00;;
56130;SDS011;42000;44.774;20.506;2023-01-26T14:16:30;28.10;;;13.95;;
56130;SDS011;42000;44.774;20.506;2023-01-26T14:19:03;35.15;;;15.95;;
56130;SDS011;42000;44.774;20.506;2023-01-26T14:21:29;31.20;;;15.27;;
56130;SDS011;42000;44.774;20.506;2023-01-26T14:23:58;32.30;;;15.98;;
56130;SDS011;42000;44.774;20.506;2023-01-26T14:28:51;24.08;;;12.93;;
56130;SDS011;42000;44.774;20.506;2023-01-26T14:31:18;22.70;;;11.82;;
56130;SDS011;42000;44.774;20.506;2023-01-26T14:33:45;25.52;;;13.52;;
56130;SDS011;42000;44.774;20.506;2023-01-26T14:36:12;23.77;;;12.45;;
56130;SDS011;42000;44.774;20.506;2023-01-26T14:38:40;28.67;;;14.57;;
56130;SDS011;42000;44.774;20.506;2023-01-26T14:41:07;26.25;;;15.15;;
56130;SDS011;42000;44.774;20.506;2023-01-26T14:43:35;28.52;;;14.38;;
56130;SDS011;42000;44.774;20.506;2023-01-26T14:46:04;28.77;;;14.18;;
56130;SDS011;42000;44.774;20.506;2023-01-26T14:48:33;40.13;;;19.08;;
56130;SDS011;42000;44.774;20.506;2023-01-26T14:51:01;31.02;;;16.75;;
56130;SDS011;42000;44.774;20.506;2023-01-26T14:53:28;31.67;;;15.27;;
56130;SDS011;42000;44.774;20.506;2023-01-26T14:55:54;33.55;;;17.10;;
56130;SDS011;42000;44.774;20.506;2023-01-26T14:58:22;29.27;;;14.85;;
56130;SDS011;42000;44.774;20.506;2023-01-26T15:00:49;38.30;;;15.82;;
56130;SDS011;42000;44.774;20.506;2023-01-26T15:03:23;33.00;;;16.35;;
56130;SDS011;42000;44.774;20.506;2023-01-26T15:06:02;32.15;;;16.27;;
56130;SDS011;42000;44.774;20.506;2023-01-26T15:08:28;36.65;;;18.08;;
56130;SDS011;42000;44.774;20.506;2023-01-26T15:11:01;43.65;;;18.10;;
56130;SDS011;42000;44.774;20.506;2023-01-26T15:13:47;34.53;;;16.15;;
56130;SDS011;42000;44.774;20.506;2023-01-26T15:16:19;42.85;;;19.85;;
56130;SDS011;42000;44.774;20.506;2023-01-26T15:18:56;43.80;;;19.45;;
56130;SDS011;42000;44.774;20.506;2023-01-26T15:21:22;40.38;;;20.10;;
56130;SDS011;42000;44.774;20.506;2023-01-26T15:23:52;43.45;;;20.40;;
56130;SDS011;42000;44.774;20.506;2023-01-26T15:28:52;39.15;;;18.33;;
56130;SDS011;42000;44.774;20.506;2023-01-26T15:31:19;33.05;;;16.75;;
56130;SDS011;42000;44.774;20.506;2023-01-26T15:33:47;28.88;;;14.85;;
56130;SDS011;42000;44.774;20.506;2023-01-26T15:36:21;35.17;;;17.52;;
56130;SDS011;42000;44.774;20.506;2023-01-26T15:38:48;32.38;;;15.82;;
56130;SDS011;42000;44.774;20.506;2023-01-26T15:41:14;20.73;;;9.73;;
56130;SDS011;42000;44.774;20.506;2023-01-26T15:43:40;24.70;;;12.35;;
56130;SDS011;42000;44.774;20.506;2023-01-26T15:46:07;27.77;;;12.77;;
56130;SDS011;42000;44.774;20.506;2023-01-26T15:48:34;28.13;;;14.13;;
56130;SDS011;42000;44.774;20.506;2023-01-26T15:51:00;27.00;;;14.35;;
56130;SDS011;42000;44.774;20.506;2023-01-26T15:53:26;38.83;;;18.23;;
56130;SDS011;42000;44.774;20.506;2023-01-26T15:55:52;38.20;;;17.25;;
56130;SDS011;42000;44.774;20.506;2023-01-26T15:58:23;41.47;;;19.85;;
56130;SDS011;42000;44.774;20.506;2023-01-26T16:00:49;61.50;;;26.75;;
56130;SDS011;42000;44.774;20.506;2023-01-26T16:03:18;38.15;;;17.98;;
56130;SDS011;42000;44.774;20.506;2023-01-26T16:05:44;45.65;;;21.63;;
56130;SDS011;42000;44.774;20.506;2023-01-26T16:08:16;37.67;;;19.30;;
56130;SDS011;42000;44.774;20.506;2023-01-26T16:10:43;33.08;;;17.23;;
56130;SDS011;42000;44.774;20.506;2023-01-26T16:13:10;32.15;;;14.75;;
56130;SDS011;42000;44.774;20.506;2023-01-26T16:18:03;16.42;;;8.35;;
56130;SDS011;42000;44.774;20.506;2023-01-26T16:20:29;23.15;;;10.95;;
56130;SDS011;42000;44.774;20.506;2023-01-26T16:22:55;24.23;;;12.20;;
56130;SDS011;42000;44.774;20.506;2023-01-26T16:25:25;27.30;;;13.13;;
56130;SDS011;42000;44.774;20.506;2023-01-26T16:27:51;33.25;;;15.20;;
56130;SDS011;42000;44.774;20.506;2023-01-26T16:30:18;19.75;;;10.15;;
56130;SDS011;42000;44.774;20.506;2023-01-26T16:32:44;24.35;;;13.27;;
56130;SDS011;42000;44.774;20.506;2023-01-26T16:35:11;19.20;;;10.35;;
56130;SDS011;42000;44.774;20.506;2023-01-26T16:37:37;30.48;;;14.10;;
56130;SDS011;42000;44.774;20.506;2023-01-26T16:40:04;29.95;;;15.30;;
56130;SDS011;42000;44.774;20.506;2023-01-26T16:42:30;24.05;;;11.77;;
56130;SDS011;42000;44.774;20.506;2023-01-26T16:44:56;23.35;;;11.57;;
56130;SDS011;42000;44.774;20.506;2023-01-26T16:47:22;28.92;;;14.02;;
56130;SDS011;42000;44.774;20.506;2023-01-26T16:49:49;31.20;;;14.95;;
56130;SDS011;42000;44.774;20.506;2023-01-26T16:52:15;22.77;;;12.50;;
56130;SDS011;42000;44.774;20.506;2023-01-26T16:54:41;26.73;;;13.77;;
56130;SDS011;42000;44.774;20.506;2023-01-26T16:57:09;28.70;;;15.18;;
56130;SDS011;42000;44.774;20.506;2023-01-26T16:59:35;27.10;;;15.30;;
56130;SDS011;42000;44.774;20.506;2023-01-26T17:02:01;30.52;;;16.20;;
56130;SDS011;42000;44.774;20.506;2023-01-26T17:04:27;31.30;;;17.15;;
56130;SDS011;42000;44.774;20.506;2023-01-26T17:06:53;30.58;;;16.83;;
56130;SDS011;42000;44.774;20.506;2023-01-26T17:09:19;34.90;;;16.45;;
56130;SDS011;42000;44.774;20.506;2023-01-26T17:11:47;38.45;;;18.33;;
56130;SDS011;42000;44.774;20.506;2023-01-26T17:14:13;29.38;;;15.95;;
56130;SDS011;42000;44.774;20.506;2023-01-26T17:16:39;30.33;;;15.00;;
56130;SDS011;42000;44.774;20.506;2023-01-26T17:19:06;28.05;;;14.90;;
56130;SDS011;42000;44.774;20.506;2023-01-26T17:21:32;23.38;;;11.40;;
56130;SDS011;42000;44.774;20.506;2023-01-26T17:23:58;28.55;;;14.50;;
56130;SDS011;42000;44.774;20.506;2023-01-26T17:26:24;33.00;;;16.15;;
56130;SDS011;42000;44.774;20.506;2023-01-26T17:28:52;32.92;;;16.98;;
56130;SDS011;42000;44.774;20.506;2023-01-26T17:31:19;28.80;;;15.75;;
56130;SDS011;42000;44.774;20.506;2023-01-26T17:33:46;26.90;;;14.50;;
56130;SDS011;42000;44.774;20.506;2023-01-26T17:36:12;24.10;;;13.30;;
56130;SDS011;42000;44.774;20.506;2023-01-26T17:38:39;24.00;;;12.38;;
56130;SDS011;42000;44.774;20.506;2023-01-26T17:41:06;25.73;;;13.55;;
56130;SDS011;42000;44.774;20.506;2023-01-26T17:43:32;25.98;;;13.38;;
56130;SDS011;42000;44.774;20.506;2023-01-26T17:46:05;27.10;;;13.85;;
56130;SDS011;42000;44.774;20.506;2023-01-26T17:48:32;28.20;;;14.50;;
56130;SDS011;42000;44.774;20.506;2023-01-26T17:50:59;27.48;;;14.23;;
56130;SDS011;42000;44.774;20.506;2023-01-26T17:53:25;61.00;;;27.33;;
56130;SDS011;42000;44.774;20.506;2023-01-26T17:55:52;72.93;;;36.75;;
56130;SDS011;42000;44.774;20.506;2023-01-26T17:58:18;40.65;;;19.70;;
56130;SDS011;42000;44.774;20.506;2023-01-26T18:00:44;60.88;;;28.30;;
56130;SDS011;42000;44.774;20.506;2023-01-26T18:03:10;73.88;;;31.15;;
56130;SDS011;42000;44.774;20.506;2023-01-26T18:05:36;60.50;;;26.70;;
56130;SDS011;42000;44.774;20.506;2023-01-26T18:08:02;56.47;;;25.33;;
56130;SDS011;42000;44.774;20.506;2023-01-26T18:10:28;79.75;;;38.80;;
56130;SDS011;42000;44.774;20.506;2023-01-26T18:12:55;42.05;;;20.92;;
56130;SDS011;42000;44.774;20.506;2023-01-26T18:15:21;48.88;;;22.58;;
56130;SDS011;42000;44.774;20.506;2023-01-26T18:17:48;45.45;;;21.55;;
56130;SDS011;42000;44.774;20.506;2023-01-26T18:20:14;41.10;;;19.02;;
56130;SDS011;42000;44.774;20.506;2023-01-26T18:22:41;47.83;;;21.63;;
56130;SDS011;42000;44.774;20.506;2023-01-26T18:25:07;48.90;;;24.92;;
56130;SDS011;42000;44.774;20.506;2023-01-26T18:27:33;44.08;;;21.88;;
56130;SDS011;42000;44.774;20.506;2023-01-26T18:29:59;54.50;;;25.50;;
56130;SDS011;42000;44.774;20.506;2023-01-26T18:32:25;54.70;;;25.05;;
56130;SDS011;42000;44.774;20.506;2023-01-26T18:34:51;50.42;;;25.23;;
56130;SDS011;42000;44.774;20.506;2023-01-26T18:37:17;53.50;;;25.98;;
56130;SDS011;42000;44.774;20.506;2023-01-26T18:39:43;46.60;;;22.77;;
56130;SDS011;42000;44.774;20.506;2023-01-26T18:42:10;53.00;;;26.77;;
56130;SDS011;42000;44.774;20.506;2023-01-26T18:44:36;50.08;;;25.20;;
56130;SDS011;42000;44.774;20.506;2023-01-26T18:47:02;56.60;;;25.15;;
56130;SDS011;42000;44.774;20.506;2023-01-26T18:49:28;42.17;;;22.15;;
56130;SDS011;42000;44.774;20.506;2023-01-26T18:51:54;53.03;;;26.15;;
56130;SDS011;42000;44.774;20.506;2023-01-26T18:54:20;40.10;;;20.45;;
56130;SDS011;42000;44.774;20.506;2023-01-26T18:56:48;61.92;;;27.63;;
56130;SDS011;42000;44.774;20.506;2023-01-26T18:59:14;34.95;;;16.65;;
56130;SDS011;42000;44.774;20.506;2023-01-26T19:01:41;50.28;;;21.55;;
56130;SDS011;42000;44.774;20.506;2023-01-26T19:04:08;53.60;;;24.55;;
56130;SDS011;42000;44.774;20.506;2023-01-26T19:06:34;49.30;;;23.65;;
56130;SDS011;42000;44.774;20.506;2023-01-26T19:09:01;29.65;;;14.75;;
56130;SDS011;42000;44.774;20.506;2023-01-26T19:11:31;52.85;;;23.58;;
56130;SDS011;42000;44.774;20.506;2023-01-26T19:13:58;42.10;;;19.60;;
56130;SDS011;42000;44.774;20.506;2023-01-26T19:16:24;38.50;;;17.02;;
56130;SDS011;42000;44.774;20.506;2023-01-26T19:18:51;75.72;;;31.55;;
56130;SDS011;42000;44.774;20.506;2023-01-26T19:21:18;72.20;;;29.92;;
56130;SDS011;42000;44.774;20.506;2023-01-26T19:23:46;43.83;;;20.42;;
56130;SDS011;42000;44.774;20.506;2023-01-26T19:26:13;49.13;;;21.33;;
56130;SDS011;42000;44.774;20.506;2023-01-26T19:28:40;46.83;;;20.58;;
56130;SDS011;42000;44.774;20.506;2023-01-26T19:31:06;49.10;;;20.67;;
56130;SDS011;42000;44.774;20.506;2023-01-26T19:33:32;52.40;;;25.02;;
56130;SDS011;42000;44.774;20.506;2023-01-26T19:36:00;45.60;;;20.88;;
56130;SDS011;42000;44.774;20.506;2023-01-26T19:38:26;50.85;;;23.02;;
56130;SDS011;42000;44.774;20.506;2023-01-26T19:40:52;43.17;;;19.38;;
56130;SDS011;42000;44.774;20.506;2023-01-26T19:43:18;46.45;;;21.90;;
56130;SDS011;42000;44.774;20.506;2023-01-26T19:45:48;42.85;;;19.38;;
56130;SDS011;42000;44.774;20.506;2023-01-26T19:48:14;44.30;;;21.63;;
56130;SDS011;42000;44.774;20.506;2023-01-26T19:50:40;43.80;;;21.30;;
56130;SDS011;42000;44.774;20.506;2023-01-26T19:53:07;52.67;;;24.80;;
56130;SDS011;42000;44.774;20.506;2023-01-26T19:55:33;58.33;;;23.98;;
56130;SDS011;42000;44.774;20.506;2023-01-26T19:57:59;60.47;;;24.95;;
56130;SDS011;42000;44.774;20.506;2023-01-26T20:00:25;65.38;;;24.90;;
56130;SDS011;42000;44.774;20.506;2023-01-26T20:02:51;49.53;;;21.45;;
56130;SDS011;42000;44.774;20.506;2023-01-26T20:05:17;53.13;;;21.75;;
56130;SDS011;42000;44.774;20.506;2023-01-26T20:07:43;47.55;;;21.80;;
56130;SDS011;42000;44.774;20.506;2023-01-26T20:10:09;46.42;;;21.60;;
56130;SDS011;42000;44.774;20.506;2023-01-26T20:12:36;57.45;;;24.40;;
56130;SDS011;42000;44.774;20.506;2023-01-26T20:15:02;43.75;;;20.23;;
56130;SDS011;42000;44.774;20.506;2023-01-26T20:17:28;49.08;;;21.52;;
56130;SDS011;42000;44.774;20.506;2023-01-26T20:19:54;54.90;;;24.52;;
56130;SDS011;42000;44.774;20.506;2023-01-26T20:22:20;52.42;;;22.35;;
56130;SDS011;42000;44.774;20.506;2023-01-26T20:24:48;56.05;;;24.25;;
56130;SDS011;42000;44.774;20.506;2023-01-26T20:27:14;73.45;;;31.77;;
56130;SDS011;42000;44.774;20.506;2023-01-26T20:29:41;57.40;;;25.05;;
56130;SDS011;42000;44.774;20.506;2023-01-26T20:32:07;64.35;;;28.40;;
56130;SDS011;42000;44.774;20.506;2023-01-26T20:34:33;42.38;;;21.15;;
56130;SDS011;42000;44.774;20.506;2023-01-26T20:36:59;56.05;;;26.40;;
56130;SDS011;42000;44.774;20.506;2023-01-26T20:39:26;44.88;;;21.23;;
56130;SDS011;42000;44.774;20.506;2023-01-26T20:41:53;45.35;;;22.33;;
56130;SDS011;42000;44.774;20.506;2023-01-26T20:44:19;42.08;;;20.85;;
56130;SDS011;42000;44.774;20.506;2023-01-26T20:46:45;46.35;;;22.50;;
56130;SDS011;42000;44.774;20.506;2023-01-26T20:49:12;41.05;;;20.08;;
56130;SDS011;42000;44.774;20.506;2023-01-26T20:51:39;56.67;;;27.42;;
56130;SDS011;42000;44.774;20.506;2023-01-26T20:54:07;55.42;;;25.20;;
56130;SDS011;42000;44.774;20.506;2023-01-26T20:56:33;54.35;;;24.20;;
56130;SDS011;42000;44.774;20.506;2023-01-26T20:58:59;39.63;;;19.60;;
56130;SDS011;42000;44.774;20.506;2023-01-26T21:01:26;42.70;;;20.90;;
56130;SDS011;42000;44.774;20.506;2023-01-26T21:03:52;35.30;;;17.80;;
56130;SDS011;42000;44.774;20.506;2023-01-26T21:06:19;39.70;;;17.00;;
56130;SDS011;42000;44.774;20.506;2023-01-26T21:08:46;33.17;;;16.58;;
56130;SDS011;42000;44.774;20.506;2023-01-26T21:11:13;55.95;;;23.77;;
56130;SDS011;42000;44.774;20.506;2023-01-26T21:13:40;35.83;;;17.45;;
56130;SDS011;42000;44.774;20.506;2023-01-26T21:16:06;37.33;;;18.65;;
56130;SDS011;42000;44.774;20.506;2023-01-26T21:18:32;34.20;;;17.02;;
56130;SDS011;42000;44.774;20.506;2023-01-26T21:20:59;36.35;;;17.83;;
56130;SDS011;42000;44.774;20.506;2023-01-26T21:23:27;27.67;;;13.10;;
56130;SDS011;42000;44.774;20.506;2023-01-26T21:26:00;33.72;;;15.98;;
56130;SDS011;42000;44.774;20.506;2023-01-26T21:28:27;50.65;;;22.92;;
56130;SDS011;42000;44.774;20.506;2023-01-26T21:31:00;31.75;;;14.90;;
56130;SDS011;42000;44.774;20.506;2023-01-26T21:33:30;37.25;;;17.30;;
56130;SDS011;42000;44.774;20.506;2023-01-26T21:35:57;38.72;;;16.95;;
56130;SDS011;42000;44.774;20.506;2023-01-26T21:38:23;48.45;;;21.83;;
56130;SDS011;42000;44.774;20.506;2023-01-26T21:40:59;33.58;;;17.60;;
56130;SDS011;42000;44.774;20.506;2023-01-26T21:43:26;40.72;;;19.02;;
56130;SDS011;42000;44.774;20.506;2023-01-26T21:45:54;34.88;;;17.48;;
56130;SDS011;42000;44.774;20.506;2023-01-26T21:48:20;40.67;;;18.90;;
56130;SDS011;42000;44.774;20.506;2023-01-26T21:50:58;33.72;;;16.23;;
56130;SDS011;42000;44.774;20.506;2023-01-26T21:53:43;41.60;;;18.80;;
56130;SDS011;42000;44.774;20.506;2023-01-26T21:56:13;37.97;;;17.00;;
56130;SDS011;42000;44.774;20.506;2023-01-26T21:58:40;40.58;;;18.52;;
56130;SDS011;42000;44.774;20.506;2023-01-26T22:01:20;34.35;;;16.88;;
56130;SDS011;42000;44.774;20.506;2023-01-26T22:03:46;41.47;;;19.38;;
56130;SDS011;42000;44.774;20.506;2023-01-26T22:06:12;35.72;;;17.02;;
56130;SDS011;42000;44.774;20.506;2023-01-26T22:08:38;41.05;;;18.85;;
56130;SDS011;42000;44.774;20.506;2023-01-26T22:11:04;45.03;;;19.88;;
56130;SDS011;42000;44.774;20.506;2023-01-26T22:13:31;52.88;;;24.58;;
56130;SDS011;42000;44.774;20.506;2023-01-26T22:16:00;56.70;;;26.30;;
56130;SDS011;42000;44.774;20.506;2023-01-26T22:18:26;43.38;;;19.58;;
56130;SDS011;42000;44.774;20.506;2023-01-26T22:20:52;53.50;;;24.92;;
56130;SDS011;42000;44.774;20.506;2023-01-26T22:23:19;41.53;;;18.52;;
56130;SDS011;42000;44.774;20.506;2023-01-26T22:25:45;37.42;;;17.05;;